Time;durP1;ratioP1;P1;durP2;ratioP2;P2;SDS_P1;SDS_P2;PMS_P1;PMS_P2;Temp;Humidity;BMP_temperature;BMP_pressure;BME280_temperature;BME280_humidity;BME280_pressure;Samples;Min_cycle;Max_cycle;Signal;HPM_P1;HPM_P2
2022/11/25 00:00:48;;;;;;;1.70;1.70;;;17.60;72.90;;;;;;5115330;27;43427;-71
2022/11/25 00:03:16;;;;;;;1.80;1.80;;;17.70;72.60;;;;;;5125726;27;45956;-70
2022/11/25 00:05:44;;;;;;;1.60;1.60;;;17.70;72.40;;;;;;5117774;27;43453;-73
2022/11/25 00:08:13;;;;;;;1.73;1.73;;;17.60;72.20;;;;;;5117981;27;43651;-70
2022/11/25 00:10:41;;;;;;;1.80;1.80;;;17.60;72.30;;;;;;5118595;27;43553;-72
2022/11/25 00:13:09;;;;;;;1.80;1.80;;;17.60;72.70;;;;;;5122175;27;45591;-70
2022/11/25 00:15:37;;;;;;;1.70;1.60;;;17.60;72.60;;;;;;5112249;27;43444;-72
2022/11/25 00:18:05;;;;;;;1.70;1.60;;;17.60;72.50;;;;;;5124795;27;43448;-70
2022/11/25 00:20:33;;;;;;;1.60;1.60;;;17.50;72.40;;;;;;5122696;27;43494;-71
2022/11/25 00:23:01;;;;;;;1.70;1.70;;;17.50;72.50;;;;;;5117165;27;43589;-71
2022/11/25 00:25:30;;;;;;;1.73;1.70;;;17.50;73.30;;;;;;5111361;27;43611;-72
2022/11/25 00:27:58;;;;;;;1.83;1.83;;;17.50;73.10;;;;;;5124229;27;43644;-70
2022/11/25 00:30:27;;;;;;;1.80;1.80;;;17.50;73.00;;;;;;5115811;27;43436;-73
2022/11/25 00:32:55;;;;;;;1.70;1.70;;;17.50;72.80;;;;;;5117962;27;44901;-71
2022/11/25 00:35:23;;;;;;;1.70;1.70;;;17.50;72.80;;;;;;5122048;27;44738;-72
2022/11/25 00:37:51;;;;;;;1.77;1.77;;;17.50;72.80;;;;;;5114460;27;44844;-71
2022/11/25 00:40:19;;;;;;;1.83;1.83;;;17.50;72.90;;;;;;5120437;27;43607;-70
2022/11/25 00:45:33;;;;;;;1.67;1.67;;;17.50;73.20;;;;;;5121419;27;44907;-72
2022/11/25 00:48:01;;;;;;;2.07;1.97;;;17.60;72.90;;;;;;5121436;27;43564;-70
2022/11/25 00:50:30;;;;;;;1.90;1.80;;;17.70;72.40;;;;;;5122524;27;43392;-72
2022/11/25 00:52:58;;;;;;;2.17;2.07;;;17.70;72.10;;;;;;5128427;27;45566;-71
2022/11/25 00:56:11;;;;;;;1.70;1.70;;;17.70;72.00;;;;;;5121440;27;44867;-71
2022/11/25 00:58:16;;;;;;;1.90;1.80;;;17.70;72.20;;;;;;5117086;27;43416;-71
2022/11/25 01:00:44;;;;;;;1.87;1.87;;;17.70;72.40;;;;;;5121098;27;43458;-72
2022/11/25 01:03:12;;;;;;;1.80;1.80;;;17.70;72.30;;;;;;5130924;27;43760;-71
2022/11/25 01:05:40;;;;;;;1.67;1.67;;;17.60;72.10;;;;;;5119631;27;45190;-70
2022/11/25 01:08:08;;;;;;;1.57;1.57;;;17.60;72.20;;;;;;5112309;27;43419;-72
2022/11/25 01:10:38;;;;;;;2.00;1.90;;;17.60;72.40;;;;;;5119623;27;43590;-70
2022/11/25 01:13:06;;;;;;;1.80;1.70;;;17.50;72.60;;;;;;5128261;27;44227;-70
2022/11/25 01:15:39;;;;;;;1.37;1.37;;;17.50;72.90;;;;;;5124691;27;43422;-70
2022/11/25 01:18:09;;;;;;;1.60;1.60;;;17.50;72.70;;;;;;5128483;27;43898;-72
2022/11/25 01:20:37;;;;;;;1.60;1.60;;;17.50;72.60;;;;;;5116251;27;43472;-73
2022/11/25 01:23:05;;;;;;;1.63;1.63;;;17.50;72.70;;;;;;5132202;27;45021;-71
2022/11/25 01:25:36;;;;;;;1.57;1.57;;;17.50;72.70;;;;;;5105685;27;43439;-71
2022/11/25 01:28:04;;;;;;;1.77;1.77;;;17.50;72.90;;;;;;5119515;27;43595;-72
2022/11/25 01:30:32;;;;;;;1.70;1.70;;;17.40;73.10;;;;;;5121607;27;44613;-70
2022/11/25 01:33:09;;;;;;;1.60;1.60;;;17.50;73.00;;;;;;5115457;27;43660;-70
2022/11/25 01:35:37;;;;;;;1.37;1.37;;;17.60;72.60;;;;;;5112203;27;44788;-70
2022/11/25 01:38:05;;;;;;;1.50;1.50;;;17.70;72.40;;;;;;5123918;27;43430;-72
2022/11/25 01:40:33;;;;;;;1.70;1.70;;;17.70;72.20;;;;;;5120243;27;43533;-70
2022/11/25 01:43:01;;;;;;;1.67;1.67;;;17.60;72.10;;;;;;5124677;27;43893;-70
2022/11/25 01:45:33;;;;;;;1.70;1.70;;;17.60;72.50;;;;;;5124331;27;43465;-71
2022/11/25 01:48:04;;;;;;;1.50;1.50;;;17.60;72.50;;;;;;5113877;27;43928;-71
2022/11/25 01:50:34;;;;;;;1.50;1.50;;;17.60;72.30;;;;;;5125696;27;43459;-71
2022/11/25 01:53:02;;;;;;;1.70;1.70;;;17.60;72.30;;;;;;5117763;27;43925;-72
2022/11/25 01:55:30;;;;;;;1.40;1.40;;;17.50;72.30;;;;;;5116489;27;45451;-71
2022/11/25 01:58:01;;;;;;;2.00;1.90;;;17.50;72.50;;;;;;5118810;27;43606;-71
2022/11/25 02:00:29;;;;;;;1.63;1.63;;;17.50;72.90;;;;;;5118223;27;43505;-74
2022/11/25 02:02:56;;;;;;;1.50;1.50;;;17.50;72.80;;;;;;5122061;27;46131;-72
2022/11/25 02:05:29;;;;;;;1.40;1.40;;;17.50;72.70;;;;;;5118990;27;44716;-73
2022/11/25 02:08:02;;;;;;;1.40;1.40;;;17.50;72.60;;;;;;5127859;27;43511;-74
2022/11/25 02:10:30;;;;;;;1.47;1.47;;;17.50;72.70;;;;;;5124044;27;43424;-70
2022/11/25 02:12:58;;;;;;;1.50;1.50;;;17.50;72.70;;;;;;5123293;27;44170;-72
2022/11/25 02:15:26;;;;;;;1.70;1.70;;;17.40;73.00;;;;;;5121514;27;44140;-74
2022/11/25 02:17:54;;;;;;;1.40;1.40;;;17.50;73.10;;;;;;5119984;27;43514;-70
2022/11/25 02:20:22;;;;;;;1.40;1.40;;;17.60;72.80;;;;;;5117081;27;44997;-71
2022/11/25 02:22:55;;;;;;;1.50;1.50;;;17.70;72.40;;;;;;5126205;27;43898;-72
2022/11/25 02:25:25;;;;;;;1.43;1.43;;;17.70;72.20;;;;;;5119813;27;45067;-73
2022/11/25 02:27:56;;;;;;;1.57;1.47;;;17.70;72.80;;;;;;5119887;27;43579;-71
2022/11/25 02:30:24;;;;;;;1.53;1.53;;;17.60;72.40;;;;;;5115196;27;43550;-69
2022/11/25 02:32:53;;;;;;;1.40;1.40;;;17.60;72.30;;;;;;5115981;27;44139;-71
2022/11/25 02:35:31;;;;;;;1.70;1.70;;;17.60;72.20;;;;;;5117632;27;43476;-71
2022/11/25 02:38:02;;;;;;;1.50;1.50;;;17.60;72.20;;;;;;5126084;27;43455;-71
2022/11/25 02:40:32;;;;;;;1.40;1.40;;;17.60;73.10;;;;;;5119333;27;43988;-72
2022/11/25 02:43:00;;;;;;;1.30;1.30;;;17.50;72.40;;;;;;5122437;27;45650;-70
2022/11/25 02:45:35;;;;;;;1.70;1.70;;;17.50;72.90;;;;;;5131651;27;43853;-73
2022/11/25 02:48:03;;;;;;;1.37;1.33;;;17.50;72.90;;;;;;5122535;27;43504;-71
2022/11/25 02:50:31;;;;;;;1.40;1.40;;;17.50;72.70;;;;;;5109433;27;44744;-73
2022/11/25 02:52:59;;;;;;;1.60;1.60;;;17.50;72.60;;;;;;5112843;27;46056;-70
2022/11/25 02:55:27;;;;;;;1.60;1.50;;;17.50;72.70;;;;;;5126763;27;43433;-72
2022/11/25 02:57:57;;;;;;;1.40;1.40;;;17.40;72.70;;;;;;5123293;27;43408;-71
2022/11/25 03:00:25;;;;;;;1.40;1.40;;;17.40;73.00;;;;;;5120454;27;43498;-72
2022/11/25 03:02:53;;;;;;;1.40;1.40;;;17.40;73.10;;;;;;5115354;27;44519;-70
2022/11/25 03:05:21;;;;;;;1.30;1.30;;;17.50;72.80;;;;;;5122207;27;44313;-71
2022/11/25 03:07:49;;;;;;;1.43;1.43;;;17.60;72.30;;;;;;5113607;27;43480;-73
2022/11/25 03:10:20;;;;;;;1.50;1.50;;;17.70;72.10;;;;;;5127739;27;45131;-71
2022/11/25 03:12:48;;;;;;;1.43;1.43;;;17.70;72.70;;;;;;5111231;27;44014;-71
2022/11/25 03:15:20;;;;;;;1.40;1.40;;;17.60;72.20;;;;;;5125431;27;43551;-72
2022/11/25 03:17:48;;;;;;;1.40;1.40;;;17.60;72.30;;;;;;5120585;27;43519;-72
2022/11/25 03:20:16;;;;;;;1.30;1.30;;;17.60;72.20;;;;;;5117778;27;43819;-70
2022/11/25 03:22:44;;;;;;;1.20;1.20;;;17.60;72.10;;;;;;5120644;27;43922;-71
2022/11/25 03:25:12;;;;;;;1.20;1.20;;;17.60;72.20;;;;;;5119725;27;43442;-72
2022/11/25 03:27:41;;;;;;;1.20;1.20;;;17.50;72.30;;;;;;5118548;27;43927;-71
2022/11/25 03:30:10;;;;;;;1.30;1.30;;;17.50;72.50;;;;;;5122641;27;44275;-72
2022/11/25 03:32:40;;;;;;;1.40;1.40;;;17.50;72.90;;;;;;5122552;27;43825;-71
2022/11/25 03:35:09;;;;;;;1.53;1.53;;;17.50;72.80;;;;;;5120105;27;43813;-70
2022/11/25 03:37:37;;;;;;;1.43;1.43;;;17.50;72.70;;;;;;5110949;27;44855;-71
2022/11/25 03:40:08;;;;;;;1.40;1.40;;;17.50;72.60;;;;;;5112158;27;43722;-70
2022/11/25 03:42:35;;;;;;;1.50;1.50;;;17.40;72.60;;;;;;5120511;27;46042;-72
2022/11/25 03:45:06;;;;;;;1.27;1.27;;;17.40;72.70;;;;;;5123632;27;43835;-72
2022/11/25 03:47:34;;;;;;;1.30;1.20;;;17.40;73.10;;;;;;5107813;27;45200;-72
2022/11/25 03:50:06;;;;;;;1.30;1.30;;;17.50;73.10;;;;;;5123494;27;43461;-74
2022/11/25 03:52:34;;;;;;;1.40;1.40;;;17.50;72.60;;;;;;5112558;27;45960;-72
2022/11/25 03:55:02;;;;;;;1.20;1.20;;;17.60;72.30;;;;;;5111435;27;43376;-71
2022/11/25 03:57:32;;;;;;;1.30;1.30;;;17.60;72.20;;;;;;5116297;27;43475;-70
2022/11/25 04:00:00;;;;;;;1.40;1.40;;;17.50;72.10;;;;;;5115842;27;43569;-72
2022/11/25 04:02:33;;;;;;;1.57;1.57;;;17.50;72.50;;;;;;5108931;27;43746;-70
2022/11/25 04:05:02;;;;;;;1.30;1.30;;;17.50;72.50;;;;;;5120076;27;43472;-71
2022/11/25 04:07:31;;;;;;;1.30;1.30;;;17.50;72.40;;;;;;5119921;27;43441;-71
2022/11/25 04:09:59;;;;;;;1.10;1.10;;;17.50;72.30;;;;;;5114170;27;44120;-70
2022/11/25 04:12:49;;;;;;;1.40;1.40;;;17.50;72.40;;;;;;5128202;27;43841;-72
2022/11/25 04:15:20;;;;;;;1.40;1.40;;;17.40;72.40;;;;;;5112262;27;44730;-72
2022/11/25 04:17:52;;;;;;;1.40;1.40;;;17.40;72.90;;;;;;5114197;27;44126;-71
2022/11/25 04:20:20;;;;;;;1.27;1.27;;;17.40;72.80;;;;;;5123275;27;43465;-72
2022/11/25 04:22:57;;;;;;;1.30;1.30;;;17.40;72.70;;;;;;5117099;27;44141;-72
2022/11/25 04:25:25;;;;;;;1.20;1.20;;;17.40;72.60;;;;;;5119784;27;44986;-73
2022/11/25 04:27:53;;;;;;;1.40;1.40;;;17.40;72.70;;;;;;5112603;27;43612;-73
2022/11/25 04:30:27;;;;;;;1.30;1.30;;;17.40;72.70;;;;;;5126928;27;43440;-71
2022/11/25 04:32:55;;;;;;;1.30;1.30;;;17.40;73.10;;;;;;5132682;27;43837;-71
2022/11/25 04:35:23;;;;;;;1.33;1.33;;;17.40;73.20;;;;;;5124329;27;43459;-71
2022/11/25 04:37:54;;;;;;;1.20;1.20;;;17.50;73.00;;;;;;5113115;27;43470;-70
2022/11/25 04:40:25;;;;;;;1.30;1.30;;;17.60;72.50;;;;;;5124431;27;43667;-71
2022/11/25 04:43:09;;;;;;;1.40;1.40;;;17.60;72.20;;;;;;5119145;27;45322;-71
2022/11/25 04:45:41;;;;;;;1.20;1.20;;;17.60;71.90;;;;;;5125932;27;43480;-70
2022/11/25 04:48:29;;;;;;;1.40;1.40;;;17.60;72.30;;;;;;5119345;27;43433;-72
2022/11/25 04:50:57;;;;;;;1.50;1.50;;;17.60;72.40;;;;;;5111597;27;43710;-70
2022/11/25 04:53:26;;;;;;;1.47;1.40;;;17.60;72.20;;;;;;5124604;27;43827;-71
2022/11/25 04:55:56;;;;;;;1.30;1.30;;;17.60;72.20;;;;;;5118859;27;44743;-71
2022/11/25 05:01:09;;;;;;;1.90;1.80;;;17.50;72.50;;;;;;5112626;27;43482;-71
2022/11/25 05:03:42;;;;;;;1.90;1.80;;;17.40;72.70;;;;;;5118285;27;44141;-71
2022/11/25 05:06:18;;;;;;;2.13;2.00;;;17.40;72.90;;;;;;5128519;27;43970;-72
2022/11/25 05:08:48;;;;;;;1.90;1.80;;;17.40;72.70;;;;;;5119241;27;43463;-71
2022/11/25 05:11:17;;;;;;;1.80;1.70;;;17.40;72.60;;;;;;5112157;27;43764;-72
2022/11/25 05:13:46;;;;;;;2.00;1.67;;;17.40;72.70;;;;;;5111078;27;46399;-71
2022/11/25 05:16:14;;;;;;;2.33;2.17;;;17.40;72.70;;;;;;5121151;27;43452;-73
2022/11/25 05:18:42;;;;;;;2.37;2.17;;;17.40;73.00;;;;;;5114622;27;43509;-72
2022/11/25 05:21:10;;;;;;;5.00;2.40;;;17.40;73.20;;;;;;5110397;27;43501;-71
2022/11/25 05:23:41;;;;;;;2.80;2.60;;;17.50;73.00;;;;;;5124204;27;44607;-72
2022/11/25 05:26:09;;;;;;;2.30;2.10;;;17.60;72.50;;;;;;5116415;27;43481;-72
2022/11/25 05:28:42;;;;;;;2.83;2.30;;;17.60;72.20;;;;;;5113014;27;43834;-71
2022/11/25 05:31:11;;;;;;;2.30;2.10;;;17.60;72.10;;;;;;5110217;27;43520;-71
2022/11/25 05:33:40;;;;;;;2.57;2.37;;;17.60;72.20;;;;;;5118535;27;45506;-74
2022/11/25 05:36:10;;;;;;;3.23;2.50;;;17.50;72.50;;;;;;5114140;27;43533;-70
2022/11/25 05:38:44;;;;;;;3.20;2.30;;;17.60;72.50;;;;;;5116445;27;43836;-72
2022/11/25 05:41:16;;;;;;;2.53;2.33;;;17.50;72.20;;;;;;5114356;27;43530;-70
2022/11/25 05:43:47;;;;;;;2.80;2.60;;;17.50;72.30;;;;;;5120527;27;44035;-71
2022/11/25 05:46:15;;;;;;;2.37;2.27;;;17.50;72.40;;;;;;5114236;27;44715;-70
2022/11/25 05:48:47;;;;;;;2.90;2.60;;;17.40;72.50;;;;;;5106805;27;43517;-70
2022/11/25 05:51:15;;;;;;;3.83;2.87;;;17.40;73.00;;;;;;5117494;27;44030;-71
2022/11/25 05:53:44;;;;;;;2.53;2.33;;;17.40;72.80;;;;;;5127607;27;45554;-71
2022/11/25 05:56:12;;;;;;;2.70;2.40;;;17.40;72.70;;;;;;5117155;27;43448;-71
2022/11/25 05:59:01;;;;;;;2.30;2.20;;;17.40;72.70;;;;;;5112275;27;43553;-70
2022/11/25 06:01:57;;;;;;;2.80;2.60;;;17.40;72.70;;;;;;5118012;27;44054;-72
2022/11/25 06:04:26;;;;;;;2.67;2.47;;;17.40;72.90;;;;;;5129246;27;43819;-71
2022/11/25 06:06:54;;;;;;;2.97;2.67;;;17.40;73.30;;;;;;5106194;27;44883;-71
2022/11/25 06:09:23;;;;;;;3.30;2.77;;;17.40;73.10;;;;;;5109870;27;43963;-73
2022/11/25 06:11:51;;;;;;;2.90;2.70;;;17.60;72.80;;;;;;5125673;27;43542;-70
2022/11/25 06:14:20;;;;;;;2.90;2.50;;;17.70;72.40;;;;;;5121695;27;44380;-70
2022/11/25 06:16:50;;;;;;;3.30;2.30;;;17.70;72.10;;;;;;5118059;27;43540;-71
2022/11/25 06:19:27;;;;;;;2.50;2.30;;;17.60;71.90;;;;;;5126848;27;43458;-71
2022/11/25 06:21:55;;;;;;;2.40;2.20;;;17.60;72.40;;;;;;5121726;27;43553;-71
2022/11/25 06:24:24;;;;;;;2.50;2.30;;;17.60;72.20;;;;;;5128142;27;43724;-71
2022/11/25 06:26:59;;;;;;;2.57;2.40;;;17.60;72.20;;;;;;5122805;27;43363;-74
2022/11/25 06:29:28;;;;;;;2.57;2.37;;;17.60;72.20;;;;;;5121848;27;43417;-71
2022/11/25 06:31:56;;;;;;;1.90;1.80;;;17.50;72.20;;;;;;5123971;27;43512;-70
2022/11/25 06:34:40;;;;;;;2.30;2.20;;;17.50;72.30;;;;;;5123501;27;44052;-73
2022/11/25 06:37:16;;;;;;;2.57;2.37;;;17.50;72.80;;;;;;5115508;27;43396;-69
2022/11/25 06:39:43;;;;;;;2.57;2.37;;;17.50;72.70;;;;;;5126982;27;43385;-71
2022/11/25 06:42:11;;;;;;;1.90;1.80;;;17.50;72.50;;;;;;5124577;27;43416;-70
2022/11/25 06:44:41;;;;;;;2.30;2.20;;;17.50;72.50;;;;;;5125967;27;43889;-73
2022/11/25 06:47:09;;;;;;;2.10;2.00;;;17.50;72.50;;;;;;5128768;27;44822;-70
2022/11/25 06:49:36;;;;;;;2.87;2.20;;;17.40;72.50;;;;;;5131332;27;43519;-70
2022/11/25 06:52:05;;;;;;;2.87;2.67;;;17.40;72.90;;;;;;5115656;27;43470;-72
2022/11/25 06:54:32;;;;;;;3.03;2.63;;;17.50;73.10;;;;;;5126331;27;43922;-70
2022/11/25 06:57:01;;;;;;;2.43;2.30;;;17.50;72.70;;;;;;5125127;27;43993;-71
2022/11/25 06:59:29;;;;;;;2.50;2.30;;;17.60;72.40;;;;;;5119827;27;43448;-71
2022/11/25 07:01:58;;;;;;;3.50;2.33;;;17.60;72.10;;;;;;5130817;27;43500;-71
2022/11/25 07:04:27;;;;;;;2.27;2.17;;;17.60;72.10;;;;;;5119822;27;43617;-71
2022/11/25 07:06:55;;;;;;;2.37;2.17;;;17.60;72.40;;;;;;5124875;27;45370;-71
2022/11/25 07:09:23;;;;;;;2.50;2.40;;;17.50;72.50;;;;;;5132256;27;43431;-70
2022/11/25 07:11:51;;;;;;;2.30;2.20;;;17.50;72.30;;;;;;5123334;27;43380;-71
2022/11/25 07:14:19;;;;;;;2.07;1.97;;;17.50;72.20;;;;;;5127874;27;43918;-71
2022/11/25 07:16:47;;;;;;;2.27;2.17;;;17.50;72.30;;;;;;5107732;27;43548;-72
2022/11/25 07:19:17;;;;;;;2.40;2.30;;;17.50;72.40;;;;;;5111285;27;43456;-70
2022/11/25 07:21:45;;;;;;;2.50;2.30;;;17.40;72.40;;;;;;5111751;27;43524;-72
2022/11/25 07:24:14;;;;;;;1.90;1.80;;;17.40;72.90;;;;;;5119969;27;46482;-70
2022/11/25 07:26:42;;;;;;;2.43;2.33;;;17.40;72.70;;;;;;5128139;27;45611;-70
2022/11/25 07:29:12;;;;;;;2.40;2.20;;;17.40;72.50;;;;;;5129635;27;43376;-71
2022/11/25 07:32:00;;;;;;;2.30;2.20;;;17.40;72.50;;;;;;5128009;27;43433;-72
2022/11/25 07:34:37;;;;;;;2.30;2.20;;;17.40;72.60;;;;;;5126203;27;43889;-72
2022/11/25 07:37:04;;;;;;;2.60;2.40;;;17.40;72.70;;;;;;5115992;27;43438;-71
2022/11/25 07:39:32;;;;;;;2.17;2.07;;;17.40;73.10;;;;;;5110627;27;43518;-70
2022/11/25 07:42:01;;;;;;;2.43;2.20;;;17.50;73.00;;;;;;5126782;27;43382;-72
2022/11/25 07:44:29;;;;;;;2.60;2.40;;;17.60;72.60;;;;;;5121881;27;46361;-72
2022/11/25 07:47:10;;;;;;;2.67;2.57;;;17.60;72.20;;;;;;5116160;27;43462;-71
2022/11/25 07:49:39;;;;;;;2.77;2.57;;;17.60;71.90;;;;;;5128705;27;43486;-69
2022/11/25 07:52:07;;;;;;;2.60;2.50;;;17.60;72.00;;;;;;5121801;27;43405;-71
2022/11/25 07:54:35;;;;;;;2.40;2.30;;;17.60;72.50;;;;;;5123623;27;43854;-71
2022/11/25 07:57:03;;;;;;;2.80;2.60;;;17.60;72.40;;;;;;5130286;27;43528;-69
2022/11/25 07:59:31;;;;;;;2.53;2.40;;;17.50;72.10;;;;;;5124809;27;43399;-70
2022/11/25 08:01:59;;;;;;;2.70;2.50;;;17.50;72.10;;;;;;5122005;27;43474;-70
2022/11/25 08:04:29;;;;;;;2.30;2.20;;;17.50;72.20;;;;;;5124915;27;43495;-71
2022/11/25 08:06:58;;;;;;;2.87;2.60;;;17.50;72.50;;;;;;5124345;27;43695;-70
2022/11/25 08:09:26;;;;;;;3.00;2.80;;;17.40;72.80;;;;;;5120551;27;43392;-71
2022/11/25 08:11:54;;;;;;;2.80;2.57;;;17.40;72.70;;;;;;5120700;27;44110;-71
2022/11/25 08:14:21;;;;;;;2.90;2.70;;;17.50;72.60;;;;;;5115354;27;43594;-71
2022/11/25 08:16:49;;;;;;;2.30;2.20;;;17.50;72.50;;;;;;5127769;27;43357;-69
2022/11/25 08:19:18;;;;;;;2.63;2.53;;;17.40;72.50;;;;;;5125906;27;43475;-70
2022/11/25 08:21:46;;;;;;;2.20;2.10;;;17.40;72.60;;;;;;5114370;27;43394;-70
2022/11/25 08:24:17;;;;;;;3.10;2.90;;;17.40;72.90;;;;;;5127591;27;43698;-71
2022/11/25 08:26:45;;;;;;;2.63;2.43;;;17.40;73.10;;;;;;5123886;27;43903;-73
2022/11/25 08:29:15;;;;;;;2.50;2.40;;;17.50;72.80;;;;;;5125368;27;43353;-72
2022/11/25 08:31:43;;;;;;;2.23;2.13;;;17.60;72.40;;;;;;5127689;27;43476;-71
2022/11/25 08:34:16;;;;;;;2.80;2.60;;;17.70;72.10;;;;;;5129144;27;43855;-71
2022/11/25 08:36:45;;;;;;;2.60;2.40;;;17.60;71.90;;;;;;5117426;27;43520;-71
2022/11/25 08:39:17;;;;;;;2.47;2.37;;;17.60;71.90;;;;;;5127034;27;43361;-72
2022/11/25 08:42:05;;;;;;;2.20;2.10;;;17.60;72.50;;;;;;5116985;27;43442;-71
2022/11/25 08:44:33;;;;;;;2.40;2.30;;;17.60;72.30;;;;;;5125617;27;43960;-72
2022/11/25 08:47:01;;;;;;;2.63;2.43;;;17.60;72.20;;;;;;5114803;27;43457;-70
2022/11/25 08:49:29;;;;;;;2.50;2.40;;;17.50;72.20;;;;;;5104336;27;43457;-71
2022/11/25 08:52:05;;;;;;;2.23;2.13;;;17.50;72.40;;;;;;5110962;27;43457;-72
2022/11/25 08:54:35;;;;;;;2.60;2.40;;;17.40;72.40;;;;;;5126908;27;43892;-72
2022/11/25 08:57:02;;;;;;;2.40;2.30;;;17.40;72.90;;;;;;5125882;27;43364;-71
2022/11/25 08:59:30;;;;;;;2.20;2.10;;;17.40;72.70;;;;;;5128521;27;43443;-71
2022/11/25 09:01:58;;;;;;;2.47;2.37;;;17.40;72.60;;;;;;5128608;27;43559;-73
2022/11/25 09:04:26;;;;;;;2.87;2.57;;;17.40;72.60;;;;;;5116244;27;44646;-70
2022/11/25 09:06:54;;;;;;;2.70;2.50;;;17.40;72.60;;;;;;5127763;27;43616;-70
2022/11/25 09:09:22;;;;;;;2.50;2.30;;;17.40;72.70;;;;;;5120121;27;43707;-72
2022/11/25 09:11:51;;;;;;;2.40;2.30;;;17.40;73.20;;;;;;5131249;27;43346;-69
2022/11/25 09:14:19;;;;;;;2.63;2.43;;;17.40;73.10;;;;;;5112288;27;43934;-71
2022/11/25 09:16:48;;;;;;;2.50;2.40;;;17.50;72.80;;;;;;5126978;27;43391;-71
2022/11/25 09:19:16;;;;;;;2.60;2.40;;;17.60;72.40;;;;;;5121662;27;43416;-70
2022/11/25 09:21:44;;;;;;;2.90;2.70;;;17.60;72.20;;;;;;5130929;27;43499;-72
2022/11/25 09:24:12;;;;;;;2.57;2.37;;;17.60;72.00;;;;;;5128714;27;45240;-72
2022/11/25 09:26:41;;;;;;;2.43;2.33;;;17.60;72.20;;;;;;5128467;27;43337;-69
2022/11/25 09:29:10;;;;;;;2.77;2.57;;;17.60;72.50;;;;;;5128018;27;43998;-71
2022/11/25 09:31:38;;;;;;;2.43;2.33;;;17.60;72.30;;;;;;5125261;27;43497;-71
2022/11/25 09:34:07;;;;;;;2.27;2.17;;;17.50;72.20;;;;;;5125519;27;45598;-72
2022/11/25 09:36:35;;;;;;;2.13;2.03;;;17.50;72.30;;;;;;5111378;27;43487;-72
2022/11/25 09:39:03;;;;;;;2.33;2.23;;;17.50;72.50;;;;;;5128935;27;43448;-73
2022/11/25 09:47:22;;;;;;;2.67;2.47;;;17.40;72.70;;;;;;5120731;27;43414;-71
2022/11/25 09:49:59;;;;;;;2.30;2.20;;;17.40;72.70;;;;;;5117622;27;43444;-72
2022/11/25 09:52:31;;;;;;;2.77;2.57;;;17.40;72.70;;;;;;5128649;27;43840;-74
2022/11/25 09:55:02;;;;;;;2.30;2.20;;;17.40;72.80;;;;;;5121979;27;45779;-70
2022/11/25 09:57:41;;;;;;;1.90;1.80;;;17.40;73.20;;;;;;5129882;27;43356;-70
2022/11/25 10:00:13;;;;;;;2.10;2.00;;;17.40;73.30;;;;;;5117091;27;43445;-71
2022/11/25 10:02:44;;;;;;;2.30;2.20;;;17.50;72.90;;;;;;5103254;27;43484;-71
2022/11/25 10:05:15;;;;;;;2.20;2.10;;;17.60;72.50;;;;;;5104157;27;44125;-71
2022/11/25 10:07:44;;;;;;;2.43;2.33;;;17.60;72.20;;;;;;5117002;27;45257;-71
2022/11/25 10:10:18;;;;;;;2.20;2.20;;;17.60;72.20;;;;;;5119712;27;43347;-70
2022/11/25 10:12:46;;;;;;;2.50;2.40;;;17.50;72.50;;;;;;5116839;27;43517;-71
2022/11/25 10:15:18;;;;;;;2.20;2.10;;;17.60;72.50;;;;;;5117201;27;44028;-72
2022/11/25 10:17:48;;;;;;;2.23;2.13;;;17.50;72.20;;;;;;5122661;27;43416;-70
2022/11/25 10:20:20;;;;;;;2.33;2.23;;;17.50;72.30;;;;;;5124563;27;43365;-71
2022/11/25 10:22:49;;;;;;;2.07;1.97;;;17.50;72.40;;;;;;5118427;27;43442;-72
2022/11/25 10:25:19;;;;;;;2.27;2.17;;;17.50;72.50;;;;;;5126973;27;43961;-72
2022/11/25 10:27:49;;;;;;;2.37;2.17;;;17.40;72.80;;;;;;5127272;27;44415;-71
2022/11/25 10:30:19;;;;;;;2.83;2.63;;;17.40;72.80;;;;;;5113690;27;43464;-70
2022/11/25 10:32:51;;;;;;;2.27;2.17;;;17.40;72.60;;;;;;5121649;27;43621;-73
2022/11/25 10:35:23;;;;;;;2.40;2.30;;;17.40;72.50;;;;;;5118988;27;43555;-72
2022/11/25 10:37:54;;;;;;;2.10;2.00;;;17.40;72.50;;;;;;5116172;27;43404;-71
2022/11/25 10:40:22;;;;;;;3.23;3.03;;;17.40;72.60;;;;;;5131572;27;43482;-70
2022/11/25 10:42:49;;;;;;;2.27;2.17;;;17.40;73.10;;;;;;5116888;27;43615;-70
2022/11/25 10:45:19;;;;;;;2.43;2.33;;;17.40;73.00;;;;;;5105612;27;43930;-71
2022/11/25 10:48:01;;;;;;;2.80;2.60;;;17.40;72.70;;;;;;5124293;27;43455;-71
2022/11/25 10:50:32;;;;;;;1.90;1.80;;;17.40;72.60;;;;;;5114079;27;43459;-72
2022/11/25 10:53:02;;;;;;;1.73;1.73;;;17.40;72.70;;;;;;5111235;27;44002;-72
2022/11/25 10:55:30;;;;;;;2.47;2.30;;;17.40;72.80;;;;;;5112006;27;43940;-74
2022/11/25 10:57:58;;;;;;;2.50;2.40;;;17.30;73.10;;;;;;5107770;27;43463;-72
2022/11/25 11:00:30;;;;;;;1.93;1.87;;;17.40;73.20;;;;;;5115234;27;43488;-71
2022/11/25 11:02:59;;;;;;;2.17;2.07;;;17.50;72.90;;;;;;5115236;27;43921;-73
2022/11/25 11:05:28;;;;;;;2.00;1.90;;;17.60;72.40;;;;;;5111154;27;43930;-70
2022/11/25 11:08:16;;;;;;;2.07;2.00;;;17.70;72.10;;;;;;5118430;27;44040;-70
2022/11/25 11:10:44;;;;;;;1.93;1.90;;;17.70;71.80;;;;;;5102363;27;43442;-70
2022/11/25 11:13:23;;;;;;;2.03;1.93;;;17.60;72.00;;;;;;5121616;27;43437;-71
2022/11/25 11:15:53;;;;;;;2.40;2.30;;;17.60;72.30;;;;;;5110773;27;43922;-70
2022/11/25 11:18:24;;;;;;;1.97;1.93;;;17.60;72.10;;;;;;5121845;27;43778;-70
2022/11/25 11:20:53;;;;;;;2.03;1.93;;;17.60;72.00;;;;;;5105414;27;43459;-71
2022/11/25 11:23:21;;;;;;;2.10;2.00;;;17.60;72.20;;;;;;5124886;27;43641;-71
2022/11/25 11:25:58;;;;;;;2.23;2.13;;;17.50;72.30;;;;;;5113522;27;43972;-70
2022/11/25 11:28:31;;;;;;;1.87;1.87;;;17.50;72.50;;;;;;5112016;27;43455;-71
2022/11/25 11:31:02;;;;;;;1.90;1.80;;;17.50;72.90;;;;;;5107306;27;43519;-73
2022/11/25 11:33:36;;;;;;;2.03;1.93;;;17.50;72.70;;;;;;5118510;27;43465;-71
2022/11/25 11:36:21;;;;;;;2.20;2.10;;;17.50;72.50;;;;;;5119266;27;43954;-71
2022/11/25 11:38:53;;;;;;;2.97;2.43;;;17.40;72.50;;;;;;5097720;27;43453;-70
2022/11/25 11:41:28;;;;;;;2.13;2.03;;;17.40;72.70;;;;;;5118798;27;43882;-70
2022/11/25 11:44:08;;;;;;;2.20;2.10;;;17.40;72.80;;;;;;5121122;27;43387;-70
2022/11/25 11:46:47;;;;;;;1.70;1.70;;;17.40;73.20;;;;;;5104202;27;45412;-71
2022/11/25 11:49:25;;;;;;;1.80;1.80;;;17.50;72.90;;;;;;5114870;27;44272;-72
2022/11/25 11:52:00;;;;;;;2.03;1.93;;;17.60;72.70;;;;;;5122794;27;43477;-74
2022/11/25 11:54:31;;;;;;;1.67;1.67;;;17.70;72.30;;;;;;5114701;27;43466;-72
2022/11/25 11:57:00;;;;;;;2.00;1.90;;;17.60;72.00;;;;;;5105233;27;43646;-71
2022/11/25 11:59:54;;;;;;;2.00;1.90;;;17.60;72.30;;;;;;5108561;27;45117;-70
2022/11/25 12:02:31;;;;;;;2.03;1.93;;;17.60;72.50;;;;;;5122603;27;43497;-72
2022/11/25 12:05:05;;;;;;;1.93;1.83;;;17.60;72.20;;;;;;5121279;27;43401;-72
2022/11/25 12:07:34;;;;;;;1.60;1.60;;;17.50;72.20;;;;;;5116088;27;43643;-71
2022/11/25 12:10:05;;;;;;;1.70;1.70;;;17.50;72.30;;;;;;5113970;27;43448;-73
2022/11/25 12:12:35;;;;;;;2.00;1.90;;;17.50;72.50;;;;;;5117389;27;43499;-72
2022/11/25 12:15:06;;;;;;;1.80;1.70;;;17.50;72.90;;;;;;5119732;27;43572;-70
2022/11/25 12:17:38;;;;;;;1.87;1.80;;;17.50;73.00;;;;;;5100009;27;45649;-73
2022/11/25 12:20:07;;;;;;;1.73;1.70;;;17.50;72.80;;;;;;5122052;27;43459;-72
2022/11/25 12:22:36;;;;;;;1.70;1.60;;;17.50;72.70;;;;;;5110162;27;43413;-71
2022/11/25 12:25:07;;;;;;;1.43;1.43;;;17.40;72.70;;;;;;5126747;27;43563;-71
2022/11/25 12:27:37;;;;;;;1.67;1.67;;;17.40;72.80;;;;;;5118361;27;43594;-71
2022/11/25 12:30:06;;;;;;;1.60;1.60;;;17.40;73.70;;;;;;5116647;27;43953;-69
2022/11/25 12:32:53;;;;;;;1.90;1.80;;;17.40;73.20;;;;;;5108262;27;43478;-70
2022/11/25 12:35:25;;;;;;;2.00;1.90;;;17.50;72.90;;;;;;5115822;27;43536;-70
2022/11/25 12:37:57;;;;;;;1.80;1.80;;;17.60;72.50;;;;;;5118857;27;45820;-71
2022/11/25 12:40:27;;;;;;;1.60;1.60;;;17.50;72.30;;;;;;5124891;27;43489;-71
2022/11/25 12:42:56;;;;;;;1.73;1.70;;;17.50;72.20;;;;;;5123261;27;43460;-71
2022/11/25 12:45:25;;;;;;;1.77;1.77;;;17.50;72.60;;;;;;5117603;27;43369;-72
2022/11/25 12:47:54;;;;;;;1.70;1.70;;;17.50;72.70;;;;;;5118297;27;44358;-72
2022/11/25 12:50:25;;;;;;;1.60;1.60;;;17.50;72.50;;;;;;5117974;27;43471;-70
2022/11/25 12:52:54;;;;;;;1.47;1.47;;;17.50;72.50;;;;;;5121728;27;43373;-72
2022/11/25 12:55:22;;;;;;;1.50;1.50;;;17.50;72.60;;;;;;5120820;27;43519;-72
2022/11/25 12:58:09;;;;;;;1.57;1.57;;;17.40;72.60;;;;;;5119116;27;44038;-72
2022/11/25 13:00:53;;;;;;;1.67;1.67;;;17.40;73.00;;;;;;5122605;27;43370;-70
2022/11/25 13:03:35;;;;;;;1.93;1.83;;;17.40;73.10;;;;;;5116836;27;43469;-72
2022/11/25 13:06:28;;;;;;;2.00;1.90;;;17.50;72.80;;;;;;5115901;27;43511;-71
2022/11/25 13:08:57;;;;;;;1.60;1.50;;;17.60;72.40;;;;;;5114262;27;46834;-71
2022/11/25 13:11:36;;;;;;;1.67;1.67;;;17.60;72.20;;;;;;5126492;27;43483;-71
2022/11/25 13:14:05;;;;;;;1.90;1.90;;;17.50;72.30;;;;;;5113483;27;43480;-72
2022/11/25 13:16:34;;;;;;;2.00;1.90;;;17.50;72.70;;;;;;5119027;27;43498;-71